sensor_id;sensor_type;location;lat;lon;timestamp;temperature;humidity
65985;HTU21D;52748;51.112;5.880;2023-08-17T00:02:21;26.54;73.99
65985;HTU21D;52748;51.112;5.880;2023-08-17T00:04:47;26.55;74.02
65985;HTU21D;52748;51.112;5.880;2023-08-17T00:07:13;26.54;74.15
65985;HTU21D;52748;51.112;5.880;2023-08-17T00:09:39;26.54;74.06
65985;HTU21D;52748;51.112;5.880;2023-08-17T00:12:05;26.54;74.04
65985;HTU21D;52748;51.112;5.880;2023-08-17T00:14:31;26.57;73.74
65985;HTU21D;52748;51.112;5.880;2023-08-17T00:16:57;26.58;73.69
65985;HTU21D;52748;51.112;5.880;2023-08-17T00:19:23;26.60;73.58
65985;HTU21D;52748;51.112;5.880;2023-08-17T00:21:48;26.58;73.68
65985;HTU21D;52748;51.112;5.880;2023-08-17T00:24:14;26.58;73.67
65985;HTU21D;52748;51.112;5.880;2023-08-17T00:26:40;26.55;73.64
65985;HTU21D;52748;51.112;5.880;2023-08-17T00:29:06;26.55;73.64
65985;HTU21D;52748;51.112;5.880;2023-08-17T00:31:33;26.54;73.77
65985;HTU21D;52748;51.112;5.880;2023-08-17T00:33:59;26.54;73.86
65985;HTU21D;52748;51.112;5.880;2023-08-17T00:36:24;26.54;73.93
65985;HTU21D;52748;51.112;5.880;2023-08-17T00:38:50;26.54;73.88
65985;HTU21D;52748;51.112;5.880;2023-08-17T00:41:16;26.57;73.57
65985;HTU21D;52748;51.112;5.880;2023-08-17T00:43:42;26.56;73.70
65985;HTU21D;52748;51.112;5.880;2023-08-17T00:46:08;26.55;73.77
65985;HTU21D;52748;51.112;5.880;2023-08-17T00:48:34;26.55;73.54
65985;HTU21D;52748;51.112;5.880;2023-08-17T00:51:01;26.55;73.79
65985;HTU21D;52748;51.112;5.880;2023-08-17T00:53:31;26.54;73.74
65985;HTU21D;52748;51.112;5.880;2023-08-17T00:56:00;26.54;73.73
65985;HTU21D;52748;51.112;5.880;2023-08-17T00:58:27;26.53;73.99
65985;HTU21D;52748;51.112;5.880;2023-08-17T01:00:53;26.52;73.77
65985;HTU21D;52748;51.112;5.880;2023-08-17T01:03:22;26.52;73.76
65985;HTU21D;52748;51.112;5.880;2023-08-17T01:05:50;26.52;73.98
65985;HTU21D;52748;51.112;5.880;2023-08-17T01:08:16;26.52;73.66
65985;HTU21D;52748;51.112;5.880;2023-08-17T01:11:03;26.53;73.94
65985;HTU21D;52748;51.112;5.880;2023-08-17T01:13:53;26.53;73.98
65985;HTU21D;52748;51.112;5.880;2023-08-17T01:16:31;26.53;73.82
65985;HTU21D;52748;51.112;5.880;2023-08-17T01:19:00;26.52;73.90
65985;HTU21D;52748;51.112;5.880;2023-08-17T01:21:37;26.52;74.04
65985;HTU21D;52748;51.112;5.880;2023-08-17T01:24:03;26.57;73.36
65985;HTU21D;52748;51.112;5.880;2023-08-17T01:26:29;26.57;73.08
65985;HTU21D;52748;51.112;5.880;2023-08-17T01:28:55;26.58;73.12
65985;HTU21D;52748;51.112;5.880;2023-08-17T01:31:29;26.58;72.99
65985;HTU21D;52748;51.112;5.880;2023-08-17T01:34:04;26.60;73.23
65985;HTU21D;52748;51.112;5.880;2023-08-17T01:36:37;26.56;73.29
65985;HTU21D;52748;51.112;5.880;2023-08-17T01:39:07;26.55;73.61
65985;HTU21D;52748;51.112;5.880;2023-08-17T01:41:34;26.54;73.58
65985;HTU21D;52748;51.112;5.880;2023-08-17T01:44:03;26.55;73.60
65985;HTU21D;52748;51.112;5.880;2023-08-17T01:46:33;26.54;73.63
65985;HTU21D;52748;51.112;5.880;2023-08-17T01:48:59;26.52;73.90
65985;HTU21D;52748;51.112;5.880;2023-08-17T01:51:25;26.55;73.86
65985;HTU21D;52748;51.112;5.880;2023-08-17T01:53:51;26.54;73.66
65985;HTU21D;52748;51.112;5.880;2023-08-17T01:56:17;26.53;73.81
65985;HTU21D;52748;51.112;5.880;2023-08-17T01:58:44;26.53;73.81
65985;HTU21D;52748;51.112;5.880;2023-08-17T02:01:10;26.52;73.77
65985;HTU21D;52748;51.112;5.880;2023-08-17T02:03:36;26.54;73.77
65985;HTU21D;52748;51.112;5.880;2023-08-17T02:06:02;26.55;73.45
65985;HTU21D;52748;51.112;5.880;2023-08-17T02:08:28;26.56;73.39
65985;HTU21D;52748;51.112;5.880;2023-08-17T02:10:54;26.57;73.16
65985;HTU21D;52748;51.112;5.880;2023-08-17T02:13:21;26.60;73.18
65985;HTU21D;52748;51.112;5.880;2023-08-17T02:15:47;26.60;73.10
65985;HTU21D;52748;51.112;5.880;2023-08-17T02:18:13;26.58;73.22
65985;HTU21D;52748;51.112;5.880;2023-08-17T02:20:39;26.54;73.25
65985;HTU21D;52748;51.112;5.880;2023-08-17T02:23:04;26.53;73.51
65985;HTU21D;52748;51.112;5.880;2023-08-17T02:25:30;26.52;73.60
65985;HTU21D;52748;51.112;5.880;2023-08-17T02:28:04;26.52;73.58
65985;HTU21D;52748;51.112;5.880;2023-08-17T02:30:30;26.49;73.81
65985;HTU21D;52748;51.112;5.880;2023-08-17T02:32:58;26.49;73.80
65985;HTU21D;52748;51.112;5.880;2023-08-17T02:35:24;26.49;73.83
65985;HTU21D;52748;51.112;5.880;2023-08-17T02:37:50;26.48;73.77
65985;HTU21D;52748;51.112;5.880;2023-08-17T02:40:15;26.48;73.94
65985;HTU21D;52748;51.112;5.880;2023-08-17T02:42:41;26.47;73.77
65985;HTU21D;52748;51.112;5.880;2023-08-17T02:45:08;26.48;73.99
65985;HTU21D;52748;51.112;5.880;2023-08-17T02:47:35;26.48;73.86
65985;HTU21D;52748;51.112;5.880;2023-08-17T02:50:01;26.48;73.77
65985;HTU21D;52748;51.112;5.880;2023-08-17T02:52:27;26.51;73.67
65985;HTU21D;52748;51.112;5.880;2023-08-17T02:54:52;26.51;73.54
65985;HTU21D;52748;51.112;5.880;2023-08-17T02:57:18;26.50;73.51
65985;HTU21D;52748;51.112;5.880;2023-08-17T02:59:45;26.49;73.82
65985;HTU21D;52748;51.112;5.880;2023-08-17T03:02:11;26.52;73.63
65985;HTU21D;52748;51.112;5.880;2023-08-17T03:04:37;26.49;73.68
65985;HTU21D;52748;51.112;5.880;2023-08-17T03:07:03;26.50;73.73
65985;HTU21D;52748;51.112;5.880;2023-08-17T03:09:29;26.48;73.67
65985;HTU21D;52748;51.112;5.880;2023-08-17T03:11:55;26.50;73.50
65985;HTU21D;52748;51.112;5.880;2023-08-17T03:14:21;26.50;73.49
65985;HTU21D;52748;51.112;5.880;2023-08-17T03:16:47;26.49;73.63
65985;HTU21D;52748;51.112;5.880;2023-08-17T03:19:14;26.49;73.84
65985;HTU21D;52748;51.112;5.880;2023-08-17T03:21:42;26.48;73.85
65985;HTU21D;52748;51.112;5.880;2023-08-17T03:24:08;26.50;73.77
65985;HTU21D;52748;51.112;5.880;2023-08-17T03:26:34;26.47;73.64
65985;HTU21D;52748;51.112;5.880;2023-08-17T03:29:00;26.46;73.70
65985;HTU21D;52748;51.112;5.880;2023-08-17T03:31:26;26.48;73.90
65985;HTU21D;52748;51.112;5.880;2023-08-17T03:33:52;26.49;73.64
65985;HTU21D;52748;51.112;5.880;2023-08-17T03:36:19;26.49;73.46
65985;HTU21D;52748;51.112;5.880;2023-08-17T03:38:45;26.50;73.60
65985;HTU21D;52748;51.112;5.880;2023-08-17T03:41:11;26.52;73.36
65985;HTU21D;52748;51.112;5.880;2023-08-17T03:43:36;26.53;73.20
65985;HTU21D;52748;51.112;5.880;2023-08-17T03:46:04;26.51;73.26
65985;HTU21D;52748;51.112;5.880;2023-08-17T03:48:30;26.49;73.41
65985;HTU21D;52748;51.112;5.880;2023-08-17T03:50:56;26.46;73.77
65985;HTU21D;52748;51.112;5.880;2023-08-17T03:53:21;26.46;73.90
65985;HTU21D;52748;51.112;5.880;2023-08-17T03:55:49;26.45;73.92
65985;HTU21D;52748;51.112;5.880;2023-08-17T03:58:15;26.45;73.93
65985;HTU21D;52748;51.112;5.880;2023-08-17T04:00:41;26.46;73.59
65985;HTU21D;52748;51.112;5.880;2023-08-17T04:03:08;26.45;73.73
65985;HTU21D;52748;51.112;5.880;2023-08-17T04:05:34;26.43;73.61
65985;HTU21D;52748;51.112;5.880;2023-08-17T04:08:01;26.43;73.82
65985;HTU21D;52748;51.112;5.880;2023-08-17T04:10:29;26.47;73.53
65985;HTU21D;52748;51.112;5.880;2023-08-17T04:12:56;26.45;73.77
65985;HTU21D;52748;51.112;5.880;2023-08-17T04:15:22;26.46;73.63
65985;HTU21D;52748;51.112;5.880;2023-08-17T04:17:48;26.49;73.55
65985;HTU21D;52748;51.112;5.880;2023-08-17T04:20:14;26.46;73.66
65985;HTU21D;52748;51.112;5.880;2023-08-17T04:22:40;26.45;73.73
65985;HTU21D;52748;51.112;5.880;2023-08-17T04:25:06;26.47;73.67
65985;HTU21D;52748;51.112;5.880;2023-08-17T04:27:33;26.48;73.23
65985;HTU21D;52748;51.112;5.880;2023-08-17T04:30:00;26.48;73.32
65985;HTU21D;52748;51.112;5.880;2023-08-17T04:32:29;26.50;73.11
65985;HTU21D;52748;51.112;5.880;2023-08-17T04:34:55;26.48;73.22
65985;HTU21D;52748;51.112;5.880;2023-08-17T04:37:21;26.49;73.21
65985;HTU21D;52748;51.112;5.880;2023-08-17T04:39:47;26.49;73.25
65985;HTU21D;52748;51.112;5.880;2023-08-17T04:42:19;26.48;73.12
65985;HTU21D;52748;51.112;5.880;2023-08-17T04:44:46;26.47;73.25
65985;HTU21D;52748;51.112;5.880;2023-08-17T04:47:11;26.49;73.09
65985;HTU21D;52748;51.112;5.880;2023-08-17T04:49:37;26.51;73.01
65985;HTU21D;52748;51.112;5.880;2023-08-17T04:52:04;26.48;72.96
65985;HTU21D;52748;51.112;5.880;2023-08-17T04:54:30;26.48;72.98
65985;HTU21D;52748;51.112;5.880;2023-08-17T04:56:56;26.47;73.15
65985;HTU21D;52748;51.112;5.880;2023-08-17T04:59:22;26.48;73.01
65985;HTU21D;52748;51.112;5.880;2023-08-17T05:01:48;26.49;72.97
65985;HTU21D;52748;51.112;5.880;2023-08-17T05:04:14;26.50;72.91
65985;HTU21D;52748;51.112;5.880;2023-08-17T05:06:39;26.50;72.62
65985;HTU21D;52748;51.112;5.880;2023-08-17T05:09:05;26.48;72.76
65985;HTU21D;52748;51.112;5.880;2023-08-17T05:11:33;26.46;73.06
65985;HTU21D;52748;51.112;5.880;2023-08-17T05:13:59;26.43;73.21
65985;HTU21D;52748;51.112;5.880;2023-08-17T05:16:25;26.42;73.28
65985;HTU21D;52748;51.112;5.880;2023-08-17T05:18:51;26.41;73.41
65985;HTU21D;52748;51.112;5.880;2023-08-17T05:21:17;26.39;73.35
65985;HTU21D;52748;51.112;5.880;2023-08-17T05:23:42;26.41;73.37
65985;HTU21D;52748;51.112;5.880;2023-08-17T05:26:08;26.41;73.32
65985;HTU21D;52748;51.112;5.880;2023-08-17T05:28:34;26.45;73.08
65985;HTU21D;52748;51.112;5.880;2023-08-17T05:31:06;26.42;73.08
65985;HTU21D;52748;51.112;5.880;2023-08-17T05:33:35;26.40;73.15
65985;HTU21D;52748;51.112;5.880;2023-08-17T05:36:01;26.39;73.20
65985;HTU21D;52748;51.112;5.880;2023-08-17T05:38:27;26.39;73.47
65985;HTU21D;52748;51.112;5.880;2023-08-17T05:40:56;26.39;73.33
65985;HTU21D;52748;51.112;5.880;2023-08-17T05:43:23;26.39;73.32
65985;HTU21D;52748;51.112;5.880;2023-08-17T05:45:49;26.38;73.38
65985;HTU21D;52748;51.112;5.880;2023-08-17T05:48:17;26.37;73.51
65985;HTU21D;52748;51.112;5.880;2023-08-17T05:50:43;26.35;73.50
65985;HTU21D;52748;51.112;5.880;2023-08-17T05:53:09;26.36;73.43
65985;HTU21D;52748;51.112;5.880;2023-08-17T05:55:34;26.37;73.33
65985;HTU21D;52748;51.112;5.880;2023-08-17T05:58:01;26.36;73.52
65985;HTU21D;52748;51.112;5.880;2023-08-17T06:00:27;26.36;73.56
65985;HTU21D;52748;51.112;5.880;2023-08-17T06:02:52;26.35;73.49
65985;HTU21D;52748;51.112;5.880;2023-08-17T06:05:23;26.36;73.34
65985;HTU21D;52748;51.112;5.880;2023-08-17T06:07:51;26.38;72.96
65985;HTU21D;52748;51.112;5.880;2023-08-17T06:10:17;26.37;72.90
65985;HTU21D;52748;51.112;5.880;2023-08-17T06:12:46;26.38;72.97
65985;HTU21D;52748;51.112;5.880;2023-08-17T06:15:13;26.37;72.91
65985;HTU21D;52748;51.112;5.880;2023-08-17T06:17:39;26.36;73.11
65985;HTU21D;52748;51.112;5.880;2023-08-17T06:20:05;26.39;73.02
65985;HTU21D;52748;51.112;5.880;2023-08-17T06:22:35;26.39;72.70
65985;HTU21D;52748;51.112;5.880;2023-08-17T06:25:01;26.42;72.94
65985;HTU21D;52748;51.112;5.880;2023-08-17T06:27:27;26.43;72.90
65985;HTU21D;52748;51.112;5.880;2023-08-17T06:29:53;26.45;72.56
65985;HTU21D;52748;51.112;5.880;2023-08-17T06:32:19;26.46;72.35
65985;HTU21D;52748;51.112;5.880;2023-08-17T06:34:45;26.45;72.31
65985;HTU21D;52748;51.112;5.880;2023-08-17T06:37:11;26.46;72.36
65985;HTU21D;52748;51.112;5.880;2023-08-17T06:39:36;26.42;72.64
65985;HTU21D;52748;51.112;5.880;2023-08-17T06:42:03;26.42;72.70
65985;HTU21D;52748;51.112;5.880;2023-08-17T06:44:29;26.43;72.48
65985;HTU21D;52748;51.112;5.880;2023-08-17T06:46:56;26.41;72.64
65985;HTU21D;52748;51.112;5.880;2023-08-17T06:49:22;26.40;72.81
65985;HTU21D;52748;51.112;5.880;2023-08-17T06:51:48;26.40;72.83
65985;HTU21D;52748;51.112;5.880;2023-08-17T06:54:14;26.39;72.96
65985;HTU21D;52748;51.112;5.880;2023-08-17T06:56:40;26.39;72.94
65985;HTU21D;52748;51.112;5.880;2023-08-17T06:59:05;26.39;72.93
65985;HTU21D;52748;51.112;5.880;2023-08-17T07:01:32;26.39;73.02
65985;HTU21D;52748;51.112;5.880;2023-08-17T07:03:58;26.39;73.08
65985;HTU21D;52748;51.112;5.880;2023-08-17T07:06:24;26.38;73.14
65985;HTU21D;52748;51.112;5.880;2023-08-17T07:08:51;26.38;73.17
65985;HTU21D;52748;51.112;5.880;2023-08-17T07:11:18;26.39;73.06
65985;HTU21D;52748;51.112;5.880;2023-08-17T07:13:44;26.40;72.79
65985;HTU21D;52748;51.112;5.880;2023-08-17T07:16:10;26.35;69.85
65985;HTU21D;52748;51.112;5.880;2023-08-17T07:18:36;26.23;66.40
65985;HTU21D;52748;51.112;5.880;2023-08-17T07:21:02;26.02;65.43
65985;HTU21D;52748;51.112;5.880;2023-08-17T07:23:27;25.86;65.14
65985;HTU21D;52748;51.112;5.880;2023-08-17T07:25:53;25.64;65.75
65985;HTU21D;52748;51.112;5.880;2023-08-17T07:28:19;25.51;65.84
65985;HTU21D;52748;51.112;5.880;2023-08-17T07:30:45;25.43;65.91
65985;HTU21D;52748;51.112;5.880;2023-08-17T07:33:11;25.21;66.62
65985;HTU21D;52748;51.112;5.880;2023-08-17T07:35:39;25.02;67.38
65985;HTU21D;52748;51.112;5.880;2023-08-17T07:38:05;24.87;68.32
65985;HTU21D;52748;51.112;5.880;2023-08-17T07:40:31;24.80;68.84
65985;HTU21D;52748;51.112;5.880;2023-08-17T07:42:57;24.80;68.92
65985;HTU21D;52748;51.112;5.880;2023-08-17T07:45:23;24.82;68.91
65985;HTU21D;52748;51.112;5.880;2023-08-17T07:47:48;24.77;68.92
65985;HTU21D;52748;51.112;5.880;2023-08-17T07:50:14;24.74;69.52
65985;HTU21D;52748;51.112;5.880;2023-08-17T07:52:40;24.63;70.29
65985;HTU21D;52748;51.112;5.880;2023-08-17T07:55:06;24.56;70.77
65985;HTU21D;52748;51.112;5.880;2023-08-17T07:57:32;24.47;71.24
65985;HTU21D;52748;51.112;5.880;2023-08-17T07:59:58;24.38;72.14
65985;HTU21D;52748;51.112;5.880;2023-08-17T08:02:24;24.31;73.03
65985;HTU21D;52748;51.112;5.880;2023-08-17T08:04:49;24.26;72.67
65985;HTU21D;52748;51.112;5.880;2023-08-17T08:07:15;24.21;72.60
65985;HTU21D;52748;51.112;5.880;2023-08-17T08:09:41;24.17;73.03
65985;HTU21D;52748;51.112;5.880;2023-08-17T08:12:07;24.08;73.50
65985;HTU21D;52748;51.112;5.880;2023-08-17T08:14:34;24.02;74.07
65985;HTU21D;52748;51.112;5.880;2023-08-17T08:17:00;24.00;74.47
65985;HTU21D;52748;51.112;5.880;2023-08-17T08:19:26;24.00;74.68
65985;HTU21D;52748;51.112;5.880;2023-08-17T08:21:52;24.01;74.41
65985;HTU21D;52748;51.112;5.880;2023-08-17T08:24:17;23.99;74.83
65985;HTU21D;52748;51.112;5.880;2023-08-17T08:26:43;24.04;74.71
65985;HTU21D;52748;51.112;5.880;2023-08-17T08:29:09;24.10;75.03
65985;HTU21D;52748;51.112;5.880;2023-08-17T08:31:35;24.25;75.05
65985;HTU21D;52748;51.112;5.880;2023-08-17T08:34:01;24.41;74.71
65985;HTU21D;52748;51.112;5.880;2023-08-17T08:36:27;24.57;74.26
65985;HTU21D;52748;51.112;5.880;2023-08-17T08:38:52;24.73;73.57
65985;HTU21D;52748;51.112;5.880;2023-08-17T08:41:19;24.87;72.81
65985;HTU21D;52748;51.112;5.880;2023-08-17T08:43:45;25.00;72.32
65985;HTU21D;52748;51.112;5.880;2023-08-17T08:46:11;25.12;72.03
65985;HTU21D;52748;51.112;5.880;2023-08-17T08:48:39;25.20;71.38
65985;HTU21D;52748;51.112;5.880;2023-08-17T08:51:08;25.29;70.95
65985;HTU21D;52748;51.112;5.880;2023-08-17T08:53:39;25.39;70.39
65985;HTU21D;52748;51.112;5.880;2023-08-17T08:56:11;25.48;70.61
65985;HTU21D;52748;51.112;5.880;2023-08-17T08:58:41;25.54;70.08
65985;HTU21D;52748;51.112;5.880;2023-08-17T09:01:10;25.60;69.27
65985;HTU21D;52748;51.112;5.880;2023-08-17T09:03:37;25.66;68.97
65985;HTU21D;52748;51.112;5.880;2023-08-17T09:06:03;25.69;68.88
65985;HTU21D;52748;51.112;5.880;2023-08-17T09:08:30;25.74;68.71
65985;HTU21D;52748;51.112;5.880;2023-08-17T09:10:57;25.78;68.42
65985;HTU21D;52748;51.112;5.880;2023-08-17T09:13:23;25.80;68.36
65985;HTU21D;52748;51.112;5.880;2023-08-17T09:15:48;25.83;68.26
65985;HTU21D;52748;51.112;5.880;2023-08-17T09:18:16;25.87;68.20
65985;HTU21D;52748;51.112;5.880;2023-08-17T09:20:46;25.89;68.11
65985;HTU21D;52748;51.112;5.880;2023-08-17T09:23:17;25.96;67.91
65985;HTU21D;52748;51.112;5.880;2023-08-17T09:25:45;25.97;67.73
65985;HTU21D;52748;51.112;5.880;2023-08-17T09:28:13;26.01;67.47
65985;HTU21D;52748;51.112;5.880;2023-08-17T09:31:00;26.04;67.46
65985;HTU21D;52748;51.112;5.880;2023-08-17T09:33:28;26.03;67.49
65985;HTU21D;52748;51.112;5.880;2023-08-17T09:35:55;26.06;67.50
65985;HTU21D;52748;51.112;5.880;2023-08-17T09:38:22;26.08;67.43
65985;HTU21D;52748;51.112;5.880;2023-08-17T09:40:48;26.07;67.68
65985;HTU21D;52748;51.112;5.880;2023-08-17T09:43:15;26.08;67.88
65985;HTU21D;52748;51.112;5.880;2023-08-17T09:45:44;26.09;67.58
65985;HTU21D;52748;51.112;5.880;2023-08-17T09:48:18;26.09;67.91
65985;HTU21D;52748;51.112;5.880;2023-08-17T09:50:46;26.09;67.89
65985;HTU21D;52748;51.112;5.880;2023-08-17T09:53:18;26.10;68.01
65985;HTU21D;52748;51.112;5.880;2023-08-17T09:55:45;26.09;68.01
65985;HTU21D;52748;51.112;5.880;2023-08-17T09:58:12;26.10;68.05
65985;HTU21D;52748;51.112;5.880;2023-08-17T10:00:45;26.15;67.99
65985;HTU21D;52748;51.112;5.880;2023-08-17T10:03:13;26.17;68.27
65985;HTU21D;52748;51.112;5.880;2023-08-17T10:05:43;26.16;68.38
65985;HTU21D;52748;51.112;5.880;2023-08-17T10:08:11;26.17;67.97
65985;HTU21D;52748;51.112;5.880;2023-08-17T10:10:44;26.19;68.23
65985;HTU21D;52748;51.112;5.880;2023-08-17T10:13:24;26.19;68.57
65985;HTU21D;52748;51.112;5.880;2023-08-17T10:16:02;26.19;68.73
65985;HTU21D;52748;51.112;5.880;2023-08-17T10:19:05;26.18;68.91
65985;HTU21D;52748;51.112;5.880;2023-08-17T10:21:46;26.18;69.10
65985;HTU21D;52748;51.112;5.880;2023-08-17T10:24:14;26.20;69.04
65985;HTU21D;52748;51.112;5.880;2023-08-17T10:26:42;26.20;69.04
65985;HTU21D;52748;51.112;5.880;2023-08-17T10:29:09;26.16;68.30
65985;HTU21D;52748;51.112;5.880;2023-08-17T10:31:35;25.99;67.20
65985;HTU21D;52748;51.112;5.880;2023-08-17T10:34:02;25.83;67.39
65985;HTU21D;52748;51.112;5.880;2023-08-17T10:36:31;25.69;67.64
65985;HTU21D;52748;51.112;5.880;2023-08-17T10:39:23;25.54;68.52
65985;HTU21D;52748;51.112;5.880;2023-08-17T10:41:52;25.39;69.73
65985;HTU21D;52748;51.112;5.880;2023-08-17T10:44:44;25.32;70.35
65985;HTU21D;52748;51.112;5.880;2023-08-17T10:47:30;25.30;70.53
65985;HTU21D;52748;51.112;5.880;2023-08-17T10:50:05;25.28;70.52
65985;HTU21D;52748;51.112;5.880;2023-08-17T10:52:34;25.23;70.75
65985;HTU21D;52748;51.112;5.880;2023-08-17T10:55:08;25.18;70.72
65985;HTU21D;52748;51.112;5.880;2023-08-17T10:57:43;25.16;71.00
65985;HTU21D;52748;51.112;5.880;2023-08-17T11:00:22;25.16;71.10
65985;HTU21D;52748;51.112;5.880;2023-08-17T11:05:49;25.19;71.58
65985;HTU21D;52748;51.112;5.880;2023-08-17T11:11:19;25.27;71.69
65985;HTU21D;52748;51.112;5.880;2023-08-17T11:13:45;25.30;71.60
65985;HTU21D;52748;51.112;5.880;2023-08-17T11:16:17;25.34;71.33
65985;HTU21D;52748;51.112;5.880;2023-08-17T11:18:48;25.39;70.64
65985;HTU21D;52748;51.112;5.880;2023-08-17T11:21:15;25.40;70.49
65985;HTU21D;52748;51.112;5.880;2023-08-17T11:23:41;25.47;70.31
65985;HTU21D;52748;51.112;5.880;2023-08-17T11:26:19;25.48;70.56
65985;HTU21D;52748;51.112;5.880;2023-08-17T11:28:45;25.57;70.17
65985;HTU21D;52748;51.112;5.880;2023-08-17T11:31:13;25.62;69.90
65985;HTU21D;52748;51.112;5.880;2023-08-17T11:33:41;25.68;69.68
65985;HTU21D;52748;51.112;5.880;2023-08-17T11:36:08;25.76;69.55
65985;HTU21D;52748;51.112;5.880;2023-08-17T11:38:37;25.83;69.47
65985;HTU21D;52748;51.112;5.880;2023-08-17T11:41:04;25.87;69.35
65985;HTU21D;52748;51.112;5.880;2023-08-17T11:43:32;25.91;69.55
65985;HTU21D;52748;51.112;5.880;2023-08-17T11:46:00;25.96;69.56
65985;HTU21D;52748;51.112;5.880;2023-08-17T11:48:26;26.04;69.32
65985;HTU21D;52748;51.112;5.880;2023-08-17T11:50:53;26.07;69.25
65985;HTU21D;52748;51.112;5.880;2023-08-17T11:53:21;26.12;69.00
65985;HTU21D;52748;51.112;5.880;2023-08-17T11:55:47;26.13;68.58
65985;HTU21D;52748;51.112;5.880;2023-08-17T11:58:13;26.19;68.56
65985;HTU21D;52748;51.112;5.880;2023-08-17T12:00:43;26.20;68.65
65985;HTU21D;52748;51.112;5.880;2023-08-17T12:03:15;26.21;68.40
65985;HTU21D;52748;51.112;5.880;2023-08-17T12:05:43;26.22;68.45
65985;HTU21D;52748;51.112;5.880;2023-08-17T12:08:10;26.23;68.54
65985;HTU21D;52748;51.112;5.880;2023-08-17T12:10:37;26.24;68.54
65985;HTU21D;52748;51.112;5.880;2023-08-17T12:13:03;26.28;68.28
65985;HTU21D;52748;51.112;5.880;2023-08-17T12:15:33;26.30;68.08
65985;HTU21D;52748;51.112;5.880;2023-08-17T12:18:03;26.33;68.07
65985;HTU21D;52748;51.112;5.880;2023-08-17T12:20:32;26.32;68.20
65985;HTU21D;52748;51.112;5.880;2023-08-17T12:22:59;26.33;68.00
65985;HTU21D;52748;51.112;5.880;2023-08-17T12:25:25;26.33;68.17
65985;HTU21D;52748;51.112;5.880;2023-08-17T12:27:51;26.35;68.23
65985;HTU21D;52748;51.112;5.880;2023-08-17T12:30:26;26.36;68.25
65985;HTU21D;52748;51.112;5.880;2023-08-17T12:32:55;26.38;67.86
65985;HTU21D;52748;51.112;5.880;2023-08-17T12:35:21;26.38;67.94
65985;HTU21D;52748;51.112;5.880;2023-08-17T12:37:50;26.37;68.08
65985;HTU21D;52748;51.112;5.880;2023-08-17T12:40:16;26.36;68.20
65985;HTU21D;52748;51.112;5.880;2023-08-17T12:42:42;26.34;68.01
65985;HTU21D;52748;51.112;5.880;2023-08-17T12:45:10;26.27;67.54
65985;HTU21D;52748;51.112;5.880;2023-08-17T12:47:36;26.20;67.54
65985;HTU21D;52748;51.112;5.880;2023-08-17T12:50:04;26.10;67.59
65985;HTU21D;52748;51.112;5.880;2023-08-17T12:52:30;26.05;68.10
65985;HTU21D;52748;51.112;5.880;2023-08-17T12:54:56;25.96;68.91
65985;HTU21D;52748;51.112;5.880;2023-08-17T12:57:22;25.91;69.35
65985;HTU21D;52748;51.112;5.880;2023-08-17T12:59:47;25.86;69.66
65985;HTU21D;52748;51.112;5.880;2023-08-17T13:02:13;25.81;69.99
65985;HTU21D;52748;51.112;5.880;2023-08-17T13:04:40;25.76;70.31
65985;HTU21D;52748;51.112;5.880;2023-08-17T13:07:06;25.73;70.33
65985;HTU21D;52748;51.112;5.880;2023-08-17T13:09:31;25.72;70.90
65985;HTU21D;52748;51.112;5.880;2023-08-17T13:11:57;25.72;71.02
65985;HTU21D;52748;51.112;5.880;2023-08-17T13:14:23;25.71;70.80
65985;HTU21D;52748;51.112;5.880;2023-08-17T13:16:50;25.66;70.74
65985;HTU21D;52748;51.112;5.880;2023-08-17T13:19:16;25.68;71.02
65985;HTU21D;52748;51.112;5.880;2023-08-17T13:21:41;25.69;70.66
65985;HTU21D;52748;51.112;5.880;2023-08-17T13:24:07;25.71;70.79
65985;HTU21D;52748;51.112;5.880;2023-08-17T13:26:35;25.68;71.22
65985;HTU21D;52748;51.112;5.880;2023-08-17T13:29:09;25.67;71.72
65985;HTU21D;52748;51.112;5.880;2023-08-17T13:31:35;25.71;71.51
65985;HTU21D;52748;51.112;5.880;2023-08-17T13:34:01;25.71;71.45
65985;HTU21D;52748;51.112;5.880;2023-08-17T13:36:27;25.69;71.87
65985;HTU21D;52748;51.112;5.880;2023-08-17T13:38:54;25.66;72.54
65985;HTU21D;52748;51.112;5.880;2023-08-17T13:41:19;25.60;72.58
65985;HTU21D;52748;51.112;5.880;2023-08-17T13:43:45;25.54;73.19
65985;HTU21D;52748;51.112;5.880;2023-08-17T13:46:12;25.50;73.83
65985;HTU21D;52748;51.112;5.880;2023-08-17T13:48:38;25.47;73.87
65985;HTU21D;52748;51.112;5.880;2023-08-17T13:51:04;25.45;74.19
65985;HTU21D;52748;51.112;5.880;2023-08-17T13:53:32;25.46;74.35
65985;HTU21D;52748;51.112;5.880;2023-08-17T13:55:58;25.44;74.39
65985;HTU21D;52748;51.112;5.880;2023-08-17T13:58:24;25.42;74.44
65985;HTU21D;52748;51.112;5.880;2023-08-17T14:00:50;25.38;75.37
65985;HTU21D;52748;51.112;5.880;2023-08-17T14:03:16;25.43;75.56
65985;HTU21D;52748;51.112;5.880;2023-08-17T14:05:42;25.50;75.02
65985;HTU21D;52748;51.112;5.880;2023-08-17T14:08:07;25.60;74.08
65985;HTU21D;52748;51.112;5.880;2023-08-17T14:10:36;25.68;73.45
65985;HTU21D;52748;51.112;5.880;2023-08-17T14:13:02;25.77;73.00
65985;HTU21D;52748;51.112;5.880;2023-08-17T14:15:28;25.80;72.80
65985;HTU21D;52748;51.112;5.880;2023-08-17T14:17:54;25.87;72.48
65985;HTU21D;52748;51.112;5.880;2023-08-17T14:20:20;25.92;72.25
65985;HTU21D;52748;51.112;5.880;2023-08-17T14:22:46;25.97;72.09
65985;HTU21D;52748;51.112;5.880;2023-08-17T14:25:11;25.99;72.00
65985;HTU21D;52748;51.112;5.880;2023-08-17T14:27:37;26.01;71.95
65985;HTU21D;52748;51.112;5.880;2023-08-17T14:30:03;26.03;72.00
65985;HTU21D;52748;51.112;5.880;2023-08-17T14:32:31;26.06;71.93
65985;HTU21D;52748;51.112;5.880;2023-08-17T14:34:56;26.09;71.61
65985;HTU21D;52748;51.112;5.880;2023-08-17T14:37:22;26.09;71.51
65985;HTU21D;52748;51.112;5.880;2023-08-17T14:39:48;26.08;71.65
65985;HTU21D;52748;51.112;5.880;2023-08-17T14:42:14;26.07;72.01
65985;HTU21D;52748;51.112;5.880;2023-08-17T14:44:40;26.03;72.23
65985;HTU21D;52748;51.112;5.880;2023-08-17T14:47:06;25.96;72.36
65985;HTU21D;52748;51.112;5.880;2023-08-17T14:49:31;25.90;73.30
65985;HTU21D;52748;51.112;5.880;2023-08-17T14:51:58;25.87;73.67
65985;HTU21D;52748;51.112;5.880;2023-08-17T14:54:26;25.81;74.18
65985;HTU21D;52748;51.112;5.880;2023-08-17T14:56:52;25.79;74.18
65985;HTU21D;52748;51.112;5.880;2023-08-17T14:59:21;25.77;74.11
65985;HTU21D;52748;51.112;5.880;2023-08-17T15:01:47;25.74;74.35
65985;HTU21D;52748;51.112;5.880;2023-08-17T15:04:14;25.72;74.70
65985;HTU21D;52748;51.112;5.880;2023-08-17T15:06:40;25.69;74.90
65985;HTU21D;52748;51.112;5.880;2023-08-17T15:09:06;25.69;75.08
65985;HTU21D;52748;51.112;5.880;2023-08-17T15:11:32;25.71;75.31
65985;HTU21D;52748;51.112;5.880;2023-08-17T15:13:58;25.69;75.31
65985;HTU21D;52748;51.112;5.880;2023-08-17T15:16:26;25.72;75.59
65985;HTU21D;52748;51.112;5.880;2023-08-17T15:18:53;25.73;75.43
65985;HTU21D;52748;51.112;5.880;2023-08-17T15:21:20;25.75;75.38
65985;HTU21D;52748;51.112;5.880;2023-08-17T15:23:46;25.74;75.31